Flight Track Log - Related Links

Times and Time Zones

All times are in EDT time to prevent confusion due to time zone crossing. See the N13HM flight status page for this flight to view local times or setup timezone preferences in your user account.

Time Position Orientation Groundspeed Altitude Reporting Facility
EDT Latitude Longitude Course Direction KTS MPH feet Rate Location/Type
Mon 08:48:05 AM 40.7500 -74.4333 159° South 133 153 2,000  Level New York TRACON
Mon 08:48:59 AM 40.7333 -74.3833 114° Southeast 136 157 3,000 1,000 Climbing New York TRACON
Mon 08:49:59 AM 40.7333 -74.3333 90° East 135 155 3,900 895 Climbing New York TRACON
Mon 08:50:53 AM 40.7333 -74.2833 90° East 136 157 4,700 579 Climbing New York TRACON
Mon 08:51:53 AM 40.7000 -74.2500 143° Southeast 174 200 5,000 150 Climbing New York TRACON
Mon 08:52:53 AM 40.6500 -74.2667 194° South 190 219 5,000  Level New York TRACON
Mon 08:53:00 AM 40.5567 -74.6323 159° South  Level Estimated
Mon 08:53:53 AM 40.6000 -74.2667 180° South 193 222 5,000  Level New York TRACON
Mon 08:54:53 AM 40.5500 -74.2667 180° South 187 215 5,000  Level New York TRACON
Mon 08:57:20 AM 40.4342 -74.2203 163° South 185 213 5,000  Level New York Center
Mon 08:58:18 AM 40.3847 -74.1961 160° South 191 220 5,000  Level New York Center
Mon 08:59:19 AM 40.3417 -74.1747 159° South 185 213 5,000  Level New York Center
Mon 09:00:19 AM 40.2897 -74.1667 173° South 185 213 5,000 500 Level New York Center
Mon 09:01:19 AM 40.2483 -74.1619 175° South 171 197 6,000 843 Climbing New York Center
Mon 09:02:20 AM 40.2131 -74.1575 175° South 151 174 6,700 750 Climbing New York Center
Mon 09:03:19 AM 40.1708 -74.1744 197° South 139 160 7,500 756 Climbing New York Center
Mon 09:04:19 AM 40.1350 -74.1889 197° South 144 166 8,200 645 Climbing New York Center
Mon 09:05:20 AM 40.1011 -74.2064 202° Southwest 144 166 8,800 595 Climbing New York Center
Mon 09:06:20 AM 40.0672 -74.2236 201° Southwest 144 166 9,400 526 Climbing New York Center
Mon 09:08:34 AM 39.9833 -74.2703 203° Southwest 149 171 10,500 492 Climbing Washington Center
Mon 09:09:35 AM 39.9483 -74.3006 214° Southwest 149 171 11,000 496 Climbing Washington Center
Mon 09:10:35 AM 39.9172 -74.3308 217° Southwest 149 171 11,500 458 Climbing Washington Center
Mon 09:11:33 AM 39.8864 -74.3611 217° Southwest 149 171 11,900 202 Climbing Washington Center
Mon 09:12:34 AM 39.8533 -74.3942 218° Southwest 149 171 11,900  Level Washington Center
Mon 09:13:35 AM 39.8119 -74.4300 214° Southwest 160 184 11,900  Level Washington Center
Mon 09:14:33 AM 39.7728 -74.4711 219° Southwest 177 204 11,900  Level Washington Center
Mon 09:15:34 AM 39.7314 -74.5094 215° Southwest 183 211 11,900  Level Washington Center
Mon 09:16:35 AM 39.6903 -74.5481 216° Southwest 183 211 11,900  Level Washington Center
Mon 09:17:35 AM 39.6508 -74.5864 217° Southwest 183 211 11,900  Level Washington Center
Mon 09:18:33 AM 39.6117 -74.6219 215° Southwest 183 211 11,900  Level Washington Center
Mon 09:19:33 AM 39.5722 -74.6600 217° Southwest 183 211 11,900  Level Washington Center
Mon 09:20:34 AM 39.5331 -74.6983 217° Southwest 178 205 11,900  Level Washington Center
Mon 09:21:34 AM 39.4936 -74.7336 215° Southwest 178 205 11,900  Level Washington Center
Mon 09:22:35 AM 39.4544 -74.7692 215° Southwest 178 205 11,900 50 Level Washington Center
Mon 09:23:35 AM 39.4150 -74.8044 215° Southwest 178 205 12,000 50 Climbing Washington Center
Mon 09:24:34 AM 39.3778 -74.8425 218° Southwest 178 205 12,000  Level Washington Center
Mon 09:25:35 AM 39.3364 -74.8806 215° Southwest 178 205 12,000  Level Washington Center
Mon 09:26:35 AM 39.2969 -74.9183 217° Southwest 178 205 12,000  Level Washington Center
Mon 09:27:33 AM 39.2575 -74.9536 215° Southwest 178 205 12,000 50 Level Washington Center
Mon 09:28:34 AM 39.2117 -74.9756 200° South 178 205 12,100  Climbing Washington Center
Mon 09:29:34 AM 39.1681 -75.0053 208° Southwest 173 199 12,000 -50 Descending Washington Center
Mon 09:30:35 AM 39.1244 -75.0297 204° Southwest 173 199 12,000  Level Washington Center
Mon 09:31:35 AM 39.0789 -75.0542 203° Southwest 173 199 12,000  Level Washington Center
Mon 09:32:33 AM 39.0350 -75.0786 203° Southwest 173 199 12,000  Level Washington Center
Mon 09:33:35 AM 38.9914 -75.1056 206° Southwest 173 199 12,000  Level Washington Center
Mon 09:34:35 AM 38.9458 -75.1325 205° Southwest 173 199 12,000 -51 Level Washington Center
Mon 09:35:33 AM 38.9019 -75.1569 203° Southwest 173 199 11,900 -50 Descending Washington Center
Mon 09:36:34 AM 38.8583 -75.1839 206° Southwest 173 199 11,900 49 Level Washington Center
Mon 09:37:35 AM 38.8125 -75.2081 202° Southwest 173 199 12,000 50 Climbing Washington Center
Mon 09:38:35 AM 38.7689 -75.2350 206° Southwest 173 199 12,000  Level Washington Center
Mon 09:39:35 AM 38.7253 -75.2617 206° Southwest 173 199 12,000  Level Washington Center
Mon 09:40:33 AM 38.6814 -75.2911 208° Southwest 173 199 12,000  Level Washington Center
Mon 09:41:33 AM 38.6397 -75.3181 207° Southwest 173 199 12,000  Level Washington Center
Mon 09:42:34 AM 38.5961 -75.3472 208° Southwest 179 206 12,000  Level Washington Center
Mon 09:43:35 AM 38.5525 -75.3739 206° Southwest 179 206 12,000  Level Washington Center
Mon 09:44:33 AM 38.5108 -75.4033 209° Southwest 179 206 12,000  Level Washington Center
Mon 09:45:34 AM 38.4669 -75.4300 205° Southwest 179 206 12,000  Level Washington Center
Mon 09:46:35 AM 38.4233 -75.4592 208° Southwest 179 206 12,000  Level Washington Center
Mon 09:47:33 AM 38.3794 -75.4858 205° Southwest 179 206 12,000  Level Washington Center
Mon 09:48:33 AM 38.3358 -75.5122 205° Southwest 179 206 12,000  Level Washington Center
Mon 09:49:34 AM 38.2858 -75.5389 203° Southwest 179 206 12,000  Level Washington Center
Mon 09:50:34 AM 38.2481 -75.5706 213° Southwest 184 212 12,000  Level Washington Center
Mon 09:51:35 AM 38.2044 -75.5997 208° Southwest 179 206 12,000  Level Washington Center
Mon 09:52:35 AM 38.1586 -75.6286 206° Southwest 179 206 12,000  Level Washington Center
Mon 09:53:33 AM 38.1189 -75.6603 212° Southwest 184 212 12,000  Level Washington Center
Mon 09:54:34 AM 38.0772 -75.6894 209° Southwest 184 212 12,000  Level Washington Center
Mon 09:55:35 AM 38.0439 -75.7208 217° Southwest 178 205 12,000  Level Washington Center
Mon 09:56:35 AM 38.0019 -75.7525 211° Southwest 173 199 12,000  Level Washington Center
Mon 09:57:34 AM 37.9603 -75.7814 209° Southwest 173 199 12,000  Level Washington Center
Mon 09:58:34 AM 37.9186 -75.8075 206° Southwest 168 193 12,000  Level Washington Center
Mon 09:59:33 AM 37.8706 -75.8392 207° Southwest 173 199 12,000  Level Washington Center
Mon 10:00:18 AM 37.8392 -75.8653 213° Southwest 174 200 12,000  Level Washington Center
Mon 10:01:43 AM 37.7806 -75.9097 211° Southwest 175 201 12,000  Level Washington Center
Mon 10:02:35 AM 37.7494 -75.9306 208° Southwest 178 205 12,000  Level Washington Center
Mon 10:03:44 AM 37.6928 -75.9697 209° Southwest 173 199 12,000  Level Washington Center
Mon 10:04:33 AM 37.6658 -75.9881 208° Southwest 178 205 12,000  Level Washington Center
Mon 10:05:46 AM 37.6092 -76.0269 209° Southwest 173 199 12,000  Level Washington Center
Mon 10:06:34 AM 37.5819 -76.0503 214° Southwest 178 205 12,000  Level Washington Center
Mon 10:07:35 AM 37.5422 -76.0764 208° Southwest 178 205 12,000  Level Washington Center
Mon 10:08:47 AM 37.4839 -76.1178 209° Southwest 171 197 12,000  Level Washington Center
Mon 10:09:33 AM 37.4586 -76.1361 210° Southwest 178 205 12,000  Level Washington Center
Mon 10:10:49 AM 37.4000 -76.1747 208° Southwest 170 196 12,000  Level Washington Center
Mon 10:11:49 AM 37.3583 -76.2033 209° Southwest 169 194 12,000  Level Washington Center
Mon 10:12:47 AM 37.3225 -76.2264 207° Southwest 171 197 12,000  Level Washington Center
Mon 10:13:53 AM 37.2744 -76.2625 211° Southwest 171 197 12,000  Level Washington Center
Mon 10:14:47 AM 37.2408 -76.2858 209° Southwest 171 197 12,000  Level Washington Center
Mon 10:15:45 AM 37.2011 -76.3167 212° Southwest 176 203 12,000  Level Washington Center
Mon 10:16:45 AM 37.1592 -76.3475 210° Southwest 176 203 12,000  Level Washington Center
Mon 10:17:47 AM 37.1153 -76.3758 207° Southwest 176 203 12,000  Level Washington Center
Mon 10:18:45 AM 37.0692 -76.4042 206° Southwest 171 197 12,000  Level Washington Center
Mon 10:19:45 AM 37.0314 -76.4322 211° Southwest 171 197 12,000  Level Washington Center
Mon 10:20:46 AM 36.9853 -76.4603 206° Southwest 171 197 12,000  Level Washington Center
Mon 10:21:47 AM 36.9497 -76.4964 219° Southwest 176 203 12,000  Level Washington Center
Mon 10:22:48 AM 36.9056 -76.5244 207° Southwest 176 203 12,000  Level Washington Center
Mon 10:23:45 AM 36.8636 -76.5525 208° Southwest 176 203 12,000  Level Washington Center
Mon 10:24:47 AM 36.8197 -76.5803 207° Southwest 176 203 12,000  Level Washington Center
Mon 10:25:45 AM 36.7819 -76.6086 211° Southwest 176 203 12,000  Level Washington Center
Mon 10:26:45 AM 36.7400 -76.6339 206° Southwest 176 203 12,000  Level Washington Center
Mon 10:27:45 AM 36.7000 -76.6644 211° Southwest 181 208 12,000  Level Washington Center
Mon 10:28:46 AM 36.6558 -76.6922 207° Southwest 181 208 12,000  Level Washington Center
Mon 10:29:46 AM 36.6161 -76.7203 210° Southwest 181 208 12,000  Level Washington Center
Mon 10:30:47 AM 36.5739 -76.7481 208° Southwest 176 203 12,000  Level Washington Center
Mon 10:31:47 AM 36.5319 -76.7783 210° Southwest 176 203 12,000  Level Washington Center
Mon 10:32:48 AM 36.4858 -76.8114 210° Southwest 176 203 12,000  Level Washington Center
Mon 10:33:46 AM 36.4436 -76.8392 208° Southwest 176 203 12,000  Level Washington Center
Mon 10:34:45 AM 36.4058 -76.8642 208° Southwest 176 203 12,000  Level Washington Center
Mon 10:35:46 AM 36.3658 -76.8972 214° Southwest 181 208 12,000  Level Washington Center
Mon 10:36:47 AM 36.3239 -76.9247 208° Southwest 181 208 12,000  Level Washington Center
Mon 10:37:47 AM 36.2797 -76.9472 202° Southwest 176 203 12,000  Level Washington Center
Mon 10:38:48 AM 36.2358 -76.9747 207° Southwest 176 203 12,000  Level Washington Center
Mon 10:39:45 AM 36.1917 -77.0022 207° Southwest 181 208 12,000  Level Washington Center
Mon 10:40:46 AM 36.1536 -77.0428 221° Southwest 181 208 12,000  Level Washington Center
Mon 10:41:45 AM 36.1197 -77.0833 224° Southwest 181 208 12,000  Level Washington Center
Mon 10:42:46 AM 36.0817 -77.1211 219° Southwest 181 208 12,000  Level Washington Center
Mon 10:43:46 AM 36.0456 -77.1642 224° Southwest 181 208 12,000  Level Washington Center
Mon 10:44:47 AM 36.0117 -77.2044 224° Southwest 181 208 12,000  Level Washington Center
Mon 10:45:45 AM 35.9756 -77.2475 224° Southwest 181 208 12,000  Level Washington Center
Mon 10:46:46 AM 35.9375 -77.2853 219° Southwest 176 203 12,000  Level Washington Center
Mon 10:47:47 AM 35.9014 -77.3256 222° Southwest 176 203 12,000  Level Washington Center
Mon 10:48:47 AM 35.8656 -77.3631 220° Southwest 176 203 12,000  Level Washington Center
Mon 10:49:46 AM 35.8272 -77.4033 220° Southwest 181 208 12,000  Level Washington Center
Mon 10:50:46 AM 35.7911 -77.4433 222° Southwest 181 208 12,000  Level Washington Center
Mon 10:51:45 AM 35.7531 -77.4833 220° Southwest 181 208 12,000  Level Washington Center
Mon 10:52:45 AM 35.7189 -77.5261 225° Southwest 187 215 12,000  Level Washington Center
Mon 10:53:46 AM 35.6808 -77.5636 219° Southwest 187 215 12,000  Level Washington Center
Mon 10:54:47 AM 35.6425 -77.6061 222° Southwest 187 215 12,000  Level Washington Center
Mon 10:55:47 AM 35.6064 -77.6433 220° Southwest 187 215 12,000  Level Washington Center
Mon 10:56:46 AM 35.5767 -77.6758 222° Southwest 187 215 12,000  Level Washington Center
Mon 10:57:46 AM 35.5319 -77.7233 221° Southwest 187 215 12,000  Level Washington Center
Mon 10:58:47 AM 35.4936 -77.7656 222° Southwest 187 215 12,000  Level Washington Center
Mon 10:59:48 AM 35.4575 -77.8028 220° Southwest 187 215 12,000  Level Washington Center
Mon 11:00:45 AM 35.4192 -77.8453 222° Southwest 187 215 12,000  Level Washington Center
Mon 11:01:46 AM 35.3808 -77.8847 220° Southwest 187 215 12,000 -50 Level Washington Center
Mon 11:02:45 AM 35.3425 -77.9244 220° Southwest 187 215 11,900 -50 Descending Washington Center
Mon 11:03:45 AM 35.3042 -77.9667 222° Southwest 187 215 11,900 49 Level Washington Center
Mon 11:04:47 AM 35.2658 -78.0086 222° Southwest 187 215 12,000 49 Climbing Washington Center
Mon 11:05:47 AM 35.2275 -78.0483 220° Southwest 187 215 12,000  Level Washington Center
Mon 11:06:45 AM 35.1889 -78.0903 222° Southwest 187 215 12,000  Level Washington Center
Mon 11:07:46 AM 35.1528 -78.1297 222° Southwest 187 215 12,000  Level Washington Center
Mon 11:08:46 AM 35.1142 -78.1692 220° Southwest 187 215 12,000  Level Washington Center
Mon 11:09:46 AM 35.0758 -78.2086 220° Southwest 187 215 12,000  Level Washington Center
Mon 11:10:47 AM 35.0394 -78.2481 222° Southwest 187 215 12,000  Level Washington Center
Mon 11:11:45 AM 35.0011 -78.2900 222° Southwest 187 215 12,000  Level Washington Center
Mon 11:12:45 AM 34.9647 -78.3317 223° Southwest 187 215 12,000  Level Washington Center
Mon 11:13:46 AM 34.9261 -78.3708 220° Southwest 187 215 12,000  Level Washington Center
Mon 11:14:47 AM 34.8878 -78.4100 220° Southwest 187 215 12,000  Level Washington Center
Mon 11:15:47 AM 34.8514 -78.4494 222° Southwest 187 215 12,000  Level Washington Center
Mon 11:16:45 AM 34.8128 -78.4886 220° Southwest 187 215 12,000  Level Washington Center
Mon 11:17:46 AM 34.7764 -78.5278 221° Southwest 187 215 12,000  Level Washington Center
Mon 11:18:46 AM 34.7356 -78.5692 220° Southwest 187 215 12,000 -29 Level Washington Center
Mon 11:21:14 AM 34.6419 -78.6683 221° Southwest 181 208 11,900 -29 Descending Jacksonville Center
Mon 11:22:14 AM 34.6036 -78.7081 220° Southwest 181 208 11,900  Level Jacksonville Center
Mon 11:23:14 AM 34.5653 -78.7478 220° Southwest 181 208 11,900  Level Jacksonville Center
Mon 11:24:14 AM 34.5269 -78.7847 218° Southwest 186 214 11,900  Level Jacksonville Center
Mon 11:25:14 AM 34.4947 -78.8242 225° Southwest 186 214 11,900  Level Jacksonville Center
Mon 11:26:14 AM 34.4564 -78.8661 222° Southwest 186 214 11,900  Level Jacksonville Center
Mon 11:27:14 AM 34.4200 -78.9031 220° Southwest 186 214 11,900  Level Jacksonville Center
Mon 11:28:14 AM 34.3797 -78.9453 221° Southwest 186 214 11,900  Level Jacksonville Center
Mon 11:29:14 AM 34.3414 -78.9847 220° Southwest 186 214 11,900  Level Jacksonville Center
Mon 11:30:14 AM 34.3069 -79.0239 223° Southwest 186 214 11,900  Level Jacksonville Center
Mon 11:31:14 AM 34.2664 -79.0608 217° Southwest 186 214 11,900  Level Jacksonville Center
Mon 11:32:14 AM 34.2300 -79.1003 222° Southwest 186 214 11,900  Level Jacksonville Center
Mon 11:33:14 AM 34.1917 -79.1369 218° Southwest 186 214 11,900  Level Jacksonville Center
Mon 11:34:14 AM 34.1572 -79.1761 223° Southwest 186 214 11,900  Level Jacksonville Center
Mon 11:35:14 AM 34.1167 -79.2156 219° Southwest 186 214 11,900  Level Jacksonville Center
Mon 11:36:14 AM 34.0781 -79.2547 220° Southwest 186 214 11,900  Level Jacksonville Center
Mon 11:37:14 AM 34.0417 -79.2914 220° Southwest 186 214 11,900  Level Jacksonville Center
Mon 11:38:14 AM 34.0053 -79.3303 222° Southwest 186 214 11,900  Level Jacksonville Center
Mon 11:39:14 AM 33.9664 -79.3644 216° Southwest 186 214 11,900  Level Jacksonville Center
Mon 11:40:14 AM 33.9278 -79.4011 218° Southwest 181 208 11,900  Level Jacksonville Center
Mon 11:41:14 AM 33.8808 -79.4381 213° Southwest 181 208 11,900  Level Jacksonville Center
Mon 11:42:14 AM 33.8503 -79.4617 213° Southwest 173 199 11,900  Level Jacksonville Center
Mon 11:43:14 AM 33.8117 -79.4983 218° Southwest 173 199 11,900  Level Jacksonville Center
Mon 11:44:14 AM 33.7728 -79.5322 216° Southwest 173 199 11,900  Level Jacksonville Center
Mon 11:45:14 AM 33.7319 -79.5661 215° Southwest 173 199 11,900  Level Jacksonville Center
Mon 11:46:14 AM 33.6956 -79.6075 223° Southwest 173 199 11,900  Level Jacksonville Center
Mon 11:47:14 AM 33.6569 -79.6464 220° Southwest 178 205 11,900  Level Jacksonville Center
Mon 11:48:14 AM 33.6206 -79.6875 223° Southwest 178 205 11,900  Level Jacksonville Center
Mon 11:49:14 AM 33.5817 -79.7264 220° Southwest 178 205 11,900  Level Jacksonville Center
Mon 11:50:14 AM 33.5431 -79.7653 220° Southwest 178 205 11,900  Level Jacksonville Center
Mon 11:51:14 AM 33.5064 -79.8039 221° Southwest 184 212 11,900  Level Jacksonville Center
Mon 11:52:14 AM 33.4678 -79.8450 222° Southwest 184 212 11,900  Level Jacksonville Center
Mon 11:53:14 AM 33.4311 -79.8836 221° Southwest 184 212 11,900  Level Jacksonville Center
Mon 11:54:14 AM 33.3925 -79.9222 220° Southwest 184 212 11,900  Level Jacksonville Center
Mon 11:55:14 AM 33.3517 -79.9658 222° Southwest 184 212 11,900  Level Jacksonville Center
Mon 11:56:14 AM 33.3128 -80.0019 218° Southwest 184 212 11,900  Level Jacksonville Center
Mon 11:57:14 AM 33.2742 -80.0406 220° Southwest 184 212 11,900  Level Jacksonville Center
Mon 11:58:14 AM 33.2353 -80.0789 220° Southwest 184 212 11,900  Level Jacksonville Center
Mon 11:59:14 AM 33.1944 -80.1200 220° Southwest 184 212 11,900  Level Jacksonville Center
Mon 12:00:14 PM 33.1558 -80.1633 223° Southwest 184 212 11,900  Level Jacksonville Center
Mon 12:01:14 PM 33.1192 -80.2017 221° Southwest 189 217 11,900  Level Jacksonville Center
Mon 12:02:14 PM 33.0803 -80.2400 220° Southwest 188 216 11,900 50 Level Jacksonville Center
Mon 12:03:14 PM 33.0433 -80.2733 217° Southwest 188 216 12,000 50 Climbing Jacksonville Center
Mon 12:04:14 PM 33.0022 -80.3117 218° Southwest 182 209 12,000  Level Jacksonville Center
Mon 12:05:14 PM 32.9678 -80.3497 223° Southwest 182 209 12,000 -100 Level Jacksonville Center
Mon 12:06:14 PM 32.9289 -80.3881 220° Southwest 182 209 11,800 -350 Descending Jacksonville Center
Mon 12:07:14 PM 32.8878 -80.4311 221° Southwest 187 215 11,300 -550 Descending Jacksonville Center
Mon 12:08:14 PM 32.8447 -80.4744 220° Southwest 192 221 10,700 -600 Descending Jacksonville Center
Mon 12:09:14 PM 32.8019 -80.5175 220° Southwest 198 228 10,100 -550 Descending Jacksonville Center
Mon 12:10:14 PM 32.7631 -80.5581 221° Southwest 198 228 9,600 -550 Descending Jacksonville Center
Mon 12:11:14 PM 32.7261 -80.5961 221° Southwest 193 222 9,000 -550 Descending Jacksonville Center
Mon 12:12:14 PM 32.6872 -80.6342 219° Southwest 188 216 8,500 -500 Descending Jacksonville Center
Mon 12:13:14 PM 32.6544 -80.6719 224° Southwest 183 211 8,000 -550 Descending Jacksonville Center
Mon 12:14:14 PM 32.6133 -80.7150 221° Southwest 183 211 7,400 -550 Descending Jacksonville Center
Mon 12:15:14 PM 32.5744 -80.7553 221° Southwest 183 211 6,900 -500 Descending Jacksonville Center
Mon 12:17:00 PM 32.5052 -80.8116 220° Southwest  Level FlightAware Approximate
Mon 12:24:00 PM 32.2543 -81.0623 220° Southwest  Level FlightAware Approximate
Mon 12:25:00 PM 32.2182 -81.0984 220° Southwest  Level FlightAware Approximate
Mon 12:26:00 PM 32.1821 -81.1345 220° Southwest  Level FlightAware Approximate
Mon 12:27:00 PM 32.1460 -81.1706 220° Southwest  Level FlightAware Approximate
Mon 12:28:00 PM 32.1167 -81.2000 220° Southwest  Level FlightAware Approximate
Mon 12:29:00 PM 32.1276 -81.2021 220° Southwest  Level Estimated
Mon 12:30:00 PM 32.1276 -81.2021 220° Southwest  Level Estimated
Mon 12:31:00 PM 32.1276 -81.2021 220° Southwest  Level Estimated
Mon 12:32:00 PM 32.1276 -81.2021 220° Southwest  Level Estimated
Mon 12:33:00 PM 32.1276 -81.2021 220° Southwest  Level Estimated
Mon 12:34:00 PM 32.1276 -81.2021 220° Southwest  Level Estimated
Mon 12:35:00 PM 32.1276 -81.2021 220° Southwest  Level Estimated
Mon 12:36:00 PM 32.1276 -81.2021 220° Southwest  Level Estimated
Mon 12:37:00 PM 32.1276 -81.2021 220° Southwest  Level Estimated
Mon 12:38:00 PM 32.1276 -81.2021 220° Southwest  Level Estimated
Mon 12:39:00 PM 32.1276 -81.2021 220° Southwest  Level Estimated
Mon 12:40:00 PM 32.1276 -81.2021 220° Southwest  Level Estimated
Mon 12:41:00 PM 32.1276 -81.2021 220° Southwest  Level Estimated

Login

Don't have an account? Register now (free) for customized features, flight alerts, and more!